sensor_id;sensor_type;location;lat;lon;timestamp;P1;durP1;ratioP1;P2;durP2;ratioP2
21761;SDS011;11203;50.870;20.682;2022-12-08T00:01:10;80.72;;;43.38;;
21761;SDS011;11203;50.870;20.682;2022-12-08T00:03:39;78.00;;;45.83;;
21761;SDS011;11203;50.870;20.682;2022-12-08T00:06:06;72.85;;;41.92;;
21761;SDS011;11203;50.870;20.682;2022-12-08T00:08:58;73.03;;;41.45;;
21761;SDS011;11203;50.870;20.682;2022-12-08T00:11:57;72.05;;;42.60;;
21761;SDS011;11203;50.870;20.682;2022-12-08T00:14:27;71.47;;;40.67;;
21761;SDS011;11203;50.870;20.682;2022-12-08T00:17:02;70.13;;;39.75;;
21761;SDS011;11203;50.870;20.682;2022-12-08T00:19:30;66.82;;;38.03;;
21761;SDS011;11203;50.870;20.682;2022-12-08T00:21:57;71.82;;;41.00;;
21761;SDS011;11203;50.870;20.682;2022-12-08T00:24:24;61.40;;;34.95;;
21761;SDS011;11203;50.870;20.682;2022-12-08T00:26:56;60.35;;;35.58;;
21761;SDS011;11203;50.870;20.682;2022-12-08T00:29:22;62.45;;;35.88;;
21761;SDS011;11203;50.870;20.682;2022-12-08T00:31:48;67.57;;;39.75;;
21761;SDS011;11203;50.870;20.682;2022-12-08T00:34:15;70.03;;;40.60;;
21761;SDS011;11203;50.870;20.682;2022-12-08T00:36:41;79.72;;;47.72;;
21761;SDS011;11203;50.870;20.682;2022-12-08T00:39:08;76.25;;;43.63;;
21761;SDS011;11203;50.870;20.682;2022-12-08T00:41:36;70.60;;;40.10;;
21761;SDS011;11203;50.870;20.682;2022-12-08T00:44:21;61.30;;;37.10;;
21761;SDS011;11203;50.870;20.682;2022-12-08T00:46:47;56.20;;;32.60;;
21761;SDS011;11203;50.870;20.682;2022-12-08T00:49:14;57.05;;;35.75;;
21761;SDS011;11203;50.870;20.682;2022-12-08T00:51:41;51.33;;;33.05;;
21761;SDS011;11203;50.870;20.682;2022-12-08T00:54:08;47.10;;;26.75;;
21761;SDS011;11203;50.870;20.682;2022-12-08T00:56:35;42.53;;;26.98;;
21761;SDS011;11203;50.870;20.682;2022-12-08T00:59:03;44.30;;;28.10;;
21761;SDS011;11203;50.870;20.682;2022-12-08T01:01:30;45.13;;;28.15;;
21761;SDS011;11203;50.870;20.682;2022-12-08T01:03:56;41.60;;;25.77;;
21761;SDS011;11203;50.870;20.682;2022-12-08T01:06:22;40.78;;;27.02;;
21761;SDS011;11203;50.870;20.682;2022-12-08T01:08:49;40.65;;;28.48;;
21761;SDS011;11203;50.870;20.682;2022-12-08T01:11:16;40.22;;;25.05;;
21761;SDS011;11203;50.870;20.682;2022-12-08T01:13:43;42.78;;;27.08;;
21761;SDS011;11203;50.870;20.682;2022-12-08T01:16:27;42.30;;;27.50;;
21761;SDS011;11203;50.870;20.682;2022-12-08T01:18:59;48.42;;;29.52;;
21761;SDS011;11203;50.870;20.682;2022-12-08T01:21:25;44.45;;;28.58;;
21761;SDS011;11203;50.870;20.682;2022-12-08T01:23:52;47.05;;;29.95;;
21761;SDS011;11203;50.870;20.682;2022-12-08T01:26:18;50.25;;;30.90;;
21761;SDS011;11203;50.870;20.682;2022-12-08T01:28:45;49.65;;;32.35;;
21761;SDS011;11203;50.870;20.682;2022-12-08T01:31:16;53.67;;;34.60;;
21761;SDS011;11203;50.870;20.682;2022-12-08T01:33:44;53.67;;;34.08;;
21761;SDS011;11203;50.870;20.682;2022-12-08T01:38:52;52.30;;;32.67;;
21761;SDS011;11203;50.870;20.682;2022-12-08T01:41:21;54.13;;;32.92;;
21761;SDS011;11203;50.870;20.682;2022-12-08T01:43:57;50.63;;;35.00;;
21761;SDS011;11203;50.870;20.682;2022-12-08T01:46:28;52.90;;;33.95;;
21761;SDS011;11203;50.870;20.682;2022-12-08T01:49:13;47.25;;;29.77;;
21761;SDS011;11203;50.870;20.682;2022-12-08T01:51:57;42.08;;;24.98;;
21761;SDS011;11203;50.870;20.682;2022-12-08T01:54:50;46.13;;;28.10;;
21761;SDS011;11203;50.870;20.682;2022-12-08T01:57:22;46.58;;;26.70;;
21761;SDS011;11203;50.870;20.682;2022-12-08T01:59:59;43.20;;;27.10;;
21761;SDS011;11203;50.870;20.682;2022-12-08T02:02:35;41.38;;;26.52;;
21761;SDS011;11203;50.870;20.682;2022-12-08T02:05:32;42.03;;;26.83;;
21761;SDS011;11203;50.870;20.682;2022-12-08T02:08:02;43.05;;;26.67;;
21761;SDS011;11203;50.870;20.682;2022-12-08T02:10:33;43.75;;;29.92;;
21761;SDS011;11203;50.870;20.682;2022-12-08T02:13:02;43.22;;;27.77;;
21761;SDS011;11203;50.870;20.682;2022-12-08T02:25:07;41.83;;;26.52;;
21761;SDS011;11203;50.870;20.682;2022-12-08T02:37:19;38.85;;;26.13;;
21761;SDS011;11203;50.870;20.682;2022-12-08T02:42:56;40.80;;;24.38;;
21761;SDS011;11203;50.870;20.682;2022-12-08T02:46:21;39.25;;;23.58;;
21761;SDS011;11203;50.870;20.682;2022-12-08T02:48:53;37.97;;;24.08;;
21761;SDS011;11203;50.870;20.682;2022-12-08T02:51:21;37.67;;;25.05;;
21761;SDS011;11203;50.870;20.682;2022-12-08T02:53:47;39.92;;;23.90;;
21761;SDS011;11203;50.870;20.682;2022-12-08T02:56:35;34.08;;;22.40;;
21761;SDS011;11203;50.870;20.682;2022-12-08T02:59:25;32.25;;;20.85;;
21761;SDS011;11203;50.870;20.682;2022-12-08T03:04:53;32.90;;;20.88;;
21761;SDS011;11203;50.870;20.682;2022-12-08T03:07:32;29.77;;;19.05;;
21761;SDS011;11203;50.870;20.682;2022-12-08T03:10:25;31.15;;;19.75;;
21761;SDS011;11203;50.870;20.682;2022-12-08T03:13:04;28.42;;;18.65;;
21761;SDS011;11203;50.870;20.682;2022-12-08T03:15:56;37.95;;;20.45;;
21761;SDS011;11203;50.870;20.682;2022-12-08T03:18:23;40.92;;;22.08;;
21761;SDS011;11203;50.870;20.682;2022-12-08T03:20:56;39.40;;;23.55;;
21761;SDS011;11203;50.870;20.682;2022-12-08T03:23:23;35.25;;;21.70;;
21761;SDS011;11203;50.870;20.682;2022-12-08T03:25:54;36.80;;;22.70;;
21761;SDS011;11203;50.870;20.682;2022-12-08T03:28:28;38.58;;;24.17;;
21761;SDS011;11203;50.870;20.682;2022-12-08T03:30:55;37.72;;;23.42;;
21761;SDS011;11203;50.870;20.682;2022-12-08T03:33:26;40.33;;;24.42;;
21761;SDS011;11203;50.870;20.682;2022-12-08T03:35:57;40.83;;;24.15;;
21761;SDS011;11203;50.870;20.682;2022-12-08T03:38:26;34.03;;;21.73;;
21761;SDS011;11203;50.870;20.682;2022-12-08T03:41:04;41.03;;;24.52;;
21761;SDS011;11203;50.870;20.682;2022-12-08T03:43:46;39.67;;;25.67;;
21761;SDS011;11203;50.870;20.682;2022-12-08T03:46:15;39.00;;;24.10;;
21761;SDS011;11203;50.870;20.682;2022-12-08T03:48:42;39.95;;;24.63;;
21761;SDS011;11203;50.870;20.682;2022-12-08T03:51:09;44.92;;;26.33;;
21761;SDS011;11203;50.870;20.682;2022-12-08T03:53:35;45.58;;;26.42;;
21761;SDS011;11203;50.870;20.682;2022-12-08T03:56:05;49.00;;;28.40;;
21761;SDS011;11203;50.870;20.682;2022-12-08T03:58:56;51.15;;;30.33;;
21761;SDS011;11203;50.870;20.682;2022-12-08T04:01:23;50.28;;;30.45;;
21761;SDS011;11203;50.870;20.682;2022-12-08T04:03:49;49.22;;;28.85;;
21761;SDS011;11203;50.870;20.682;2022-12-08T04:06:16;51.90;;;31.05;;
21761;SDS011;11203;50.870;20.682;2022-12-08T04:08:44;59.55;;;33.83;;
21761;SDS011;11203;50.870;20.682;2022-12-08T04:11:10;56.55;;;31.42;;
21761;SDS011;11203;50.870;20.682;2022-12-08T04:13:37;48.08;;;30.05;;
21761;SDS011;11203;50.870;20.682;2022-12-08T04:16:05;53.83;;;31.55;;
21761;SDS011;11203;50.870;20.682;2022-12-08T04:18:33;54.30;;;31.45;;
21761;SDS011;11203;50.870;20.682;2022-12-08T04:21:00;54.53;;;30.40;;
21761;SDS011;11203;50.870;20.682;2022-12-08T04:23:26;59.70;;;33.85;;
21761;SDS011;11203;50.870;20.682;2022-12-08T04:25:53;59.22;;;35.40;;
21761;SDS011;11203;50.870;20.682;2022-12-08T04:28:19;65.90;;;37.58;;
21761;SDS011;11203;50.870;20.682;2022-12-08T04:30:46;64.80;;;40.97;;
21761;SDS011;11203;50.870;20.682;2022-12-08T04:33:14;72.05;;;42.75;;
21761;SDS011;11203;50.870;20.682;2022-12-08T04:35:40;68.97;;;41.40;;
21761;SDS011;11203;50.870;20.682;2022-12-08T04:38:06;69.03;;;40.50;;
21761;SDS011;11203;50.870;20.682;2022-12-08T04:40:32;64.97;;;37.63;;
21761;SDS011;11203;50.870;20.682;2022-12-08T04:42:59;66.05;;;37.78;;
21761;SDS011;11203;50.870;20.682;2022-12-08T04:45:25;53.42;;;32.20;;
21761;SDS011;11203;50.870;20.682;2022-12-08T04:47:51;50.08;;;30.20;;
21761;SDS011;11203;50.870;20.682;2022-12-08T04:50:17;48.72;;;27.98;;
21761;SDS011;11203;50.870;20.682;2022-12-08T04:52:43;52.47;;;28.80;;
21761;SDS011;11203;50.870;20.682;2022-12-08T04:55:09;51.05;;;30.05;;
21761;SDS011;11203;50.870;20.682;2022-12-08T04:57:35;53.03;;;29.80;;
21761;SDS011;11203;50.870;20.682;2022-12-08T05:00:02;49.78;;;29.58;;
21761;SDS011;11203;50.870;20.682;2022-12-08T05:02:30;51.42;;;29.58;;
21761;SDS011;11203;50.870;20.682;2022-12-08T05:04:57;50.95;;;28.95;;
21761;SDS011;11203;50.870;20.682;2022-12-08T05:07:23;48.08;;;28.33;;
21761;SDS011;11203;50.870;20.682;2022-12-08T05:09:49;52.05;;;28.90;;
21761;SDS011;11203;50.870;20.682;2022-12-08T05:12:15;53.25;;;30.52;;
21761;SDS011;11203;50.870;20.682;2022-12-08T05:14:41;53.28;;;30.88;;
21761;SDS011;11203;50.870;20.682;2022-12-08T05:17:07;48.03;;;29.95;;
21761;SDS011;11203;50.870;20.682;2022-12-08T05:19:33;48.65;;;29.83;;
21761;SDS011;11203;50.870;20.682;2022-12-08T05:22:00;50.75;;;30.63;;
21761;SDS011;11203;50.870;20.682;2022-12-08T05:24:26;48.35;;;27.80;;
21761;SDS011;11203;50.870;20.682;2022-12-08T05:26:52;49.10;;;28.17;;
21761;SDS011;11203;50.870;20.682;2022-12-08T05:29:18;49.83;;;28.05;;
21761;SDS011;11203;50.870;20.682;2022-12-08T05:31:45;45.40;;;27.30;;
21761;SDS011;11203;50.870;20.682;2022-12-08T05:34:11;47.63;;;29.20;;
21761;SDS011;11203;50.870;20.682;2022-12-08T05:36:38;48.20;;;28.55;;
21761;SDS011;11203;50.870;20.682;2022-12-08T05:39:04;55.08;;;31.00;;
21761;SDS011;11203;50.870;20.682;2022-12-08T05:41:30;50.08;;;30.35;;
21761;SDS011;11203;50.870;20.682;2022-12-08T05:43:56;53.28;;;31.45;;
21761;SDS011;11203;50.870;20.682;2022-12-08T05:46:22;50.20;;;31.05;;
21761;SDS011;11203;50.870;20.682;2022-12-08T05:48:48;51.63;;;32.20;;
21761;SDS011;11203;50.870;20.682;2022-12-08T05:51:20;52.65;;;31.05;;
21761;SDS011;11203;50.870;20.682;2022-12-08T05:53:48;59.88;;;30.42;;
21761;SDS011;11203;50.870;20.682;2022-12-08T05:56:16;68.15;;;37.35;;
21761;SDS011;11203;50.870;20.682;2022-12-08T05:58:44;63.33;;;39.05;;
21761;SDS011;11203;50.870;20.682;2022-12-08T06:01:23;79.45;;;48.63;;
21761;SDS011;11203;50.870;20.682;2022-12-08T06:03:54;58.05;;;36.38;;
21761;SDS011;11203;50.870;20.682;2022-12-08T06:06:23;43.58;;;29.30;;
21761;SDS011;11203;50.870;20.682;2022-12-08T06:08:50;45.25;;;28.45;;
21761;SDS011;11203;50.870;20.682;2022-12-08T06:11:17;43.78;;;27.98;;
21761;SDS011;11203;50.870;20.682;2022-12-08T06:13:54;44.80;;;27.85;;
21761;SDS011;11203;50.870;20.682;2022-12-08T06:16:21;40.50;;;27.17;;
21761;SDS011;11203;50.870;20.682;2022-12-08T06:18:50;43.70;;;27.35;;
21761;SDS011;11203;50.870;20.682;2022-12-08T06:21:16;47.10;;;28.05;;
21761;SDS011;11203;50.870;20.682;2022-12-08T06:23:46;46.30;;;29.67;;
21761;SDS011;11203;50.870;20.682;2022-12-08T06:26:14;51.78;;;29.45;;
21761;SDS011;11203;50.870;20.682;2022-12-08T06:28:41;46.83;;;29.98;;
21761;SDS011;11203;50.870;20.682;2022-12-08T06:31:15;55.40;;;33.17;;
21761;SDS011;11203;50.870;20.682;2022-12-08T06:33:49;57.88;;;36.22;;
21761;SDS011;11203;50.870;20.682;2022-12-08T06:36:17;56.20;;;34.47;;
21761;SDS011;11203;50.870;20.682;2022-12-08T06:38:46;63.63;;;38.95;;
21761;SDS011;11203;50.870;20.682;2022-12-08T06:41:13;60.65;;;39.97;;
21761;SDS011;11203;50.870;20.682;2022-12-08T06:43:40;56.78;;;35.25;;
21761;SDS011;11203;50.870;20.682;2022-12-08T06:46:08;50.70;;;30.83;;
21761;SDS011;11203;50.870;20.682;2022-12-08T06:48:38;50.28;;;29.05;;
21761;SDS011;11203;50.870;20.682;2022-12-08T06:51:14;47.95;;;28.30;;
21761;SDS011;11203;50.870;20.682;2022-12-08T06:53:43;47.97;;;27.70;;
21761;SDS011;11203;50.870;20.682;2022-12-08T06:56:11;49.53;;;27.40;;
21761;SDS011;11203;50.870;20.682;2022-12-08T06:58:40;43.60;;;27.33;;
21761;SDS011;11203;50.870;20.682;2022-12-08T07:01:08;44.28;;;26.92;;
21761;SDS011;11203;50.870;20.682;2022-12-08T07:03:37;46.13;;;26.70;;
21761;SDS011;11203;50.870;20.682;2022-12-08T07:06:04;41.28;;;26.55;;
21761;SDS011;11203;50.870;20.682;2022-12-08T07:08:31;43.70;;;27.05;;
21761;SDS011;11203;50.870;20.682;2022-12-08T07:10:58;45.97;;;27.10;;
21761;SDS011;11203;50.870;20.682;2022-12-08T07:13:30;46.38;;;28.02;;
21761;SDS011;11203;50.870;20.682;2022-12-08T07:15:56;47.85;;;29.40;;
21761;SDS011;11203;50.870;20.682;2022-12-08T07:18:22;44.65;;;27.58;;
21761;SDS011;11203;50.870;20.682;2022-12-08T07:20:49;49.65;;;29.67;;
21761;SDS011;11203;50.870;20.682;2022-12-08T07:23:14;52.65;;;31.63;;
21761;SDS011;11203;50.870;20.682;2022-12-08T07:25:41;59.30;;;36.60;;
21761;SDS011;11203;50.870;20.682;2022-12-08T07:28:09;55.97;;;35.47;;
21761;SDS011;11203;50.870;20.682;2022-12-08T07:30:36;58.70;;;35.15;;
21761;SDS011;11203;50.870;20.682;2022-12-08T07:33:03;58.55;;;37.25;;
21761;SDS011;11203;50.870;20.682;2022-12-08T07:35:32;61.10;;;37.67;;
21761;SDS011;11203;50.870;20.682;2022-12-08T07:37:58;58.42;;;36.55;;
21761;SDS011;11203;50.870;20.682;2022-12-08T07:40:24;60.08;;;36.17;;
21761;SDS011;11203;50.870;20.682;2022-12-08T07:42:50;53.28;;;35.15;;
21761;SDS011;11203;50.870;20.682;2022-12-08T07:45:16;63.53;;;39.30;;
21761;SDS011;11203;50.870;20.682;2022-12-08T07:47:42;55.45;;;34.58;;
21761;SDS011;11203;50.870;20.682;2022-12-08T07:50:09;61.40;;;37.53;;
21761;SDS011;11203;50.870;20.682;2022-12-08T07:52:35;58.13;;;35.58;;
21761;SDS011;11203;50.870;20.682;2022-12-08T07:55:01;71.40;;;43.28;;
21761;SDS011;11203;50.870;20.682;2022-12-08T07:57:27;81.72;;;49.17;;
21761;SDS011;11203;50.870;20.682;2022-12-08T07:59:53;78.35;;;46.47;;
21761;SDS011;11203;50.870;20.682;2022-12-08T08:02:19;82.93;;;45.47;;
21761;SDS011;11203;50.870;20.682;2022-12-08T08:04:48;63.38;;;36.70;;
21761;SDS011;11203;50.870;20.682;2022-12-08T08:07:15;55.97;;;35.42;;
21761;SDS011;11203;50.870;20.682;2022-12-08T08:09:41;51.40;;;30.80;;
21761;SDS011;11203;50.870;20.682;2022-12-08T08:12:07;52.67;;;33.85;;
21761;SDS011;11203;50.870;20.682;2022-12-08T08:14:34;52.92;;;33.00;;
21761;SDS011;11203;50.870;20.682;2022-12-08T08:17:00;49.78;;;31.13;;
21761;SDS011;11203;50.870;20.682;2022-12-08T08:19:26;49.60;;;31.00;;
21761;SDS011;11203;50.870;20.682;2022-12-08T08:21:52;49.90;;;30.42;;
21761;SDS011;11203;50.870;20.682;2022-12-08T08:24:19;755.65;;;292.33;;
21761;SDS011;11203;50.870;20.682;2022-12-08T08:26:46;546.53;;;199.30;;
21761;SDS011;11203;50.870;20.682;2022-12-08T08:29:12;98.20;;;53.03;;
21761;SDS011;11203;50.870;20.682;2022-12-08T08:31:38;84.57;;;48.28;;
21761;SDS011;11203;50.870;20.682;2022-12-08T08:34:04;265.77;;;84.90;;
21761;SDS011;11203;50.870;20.682;2022-12-08T08:36:31;173.40;;;69.70;;
21761;SDS011;11203;50.870;20.682;2022-12-08T08:38:57;57.28;;;34.22;;
21761;SDS011;11203;50.870;20.682;2022-12-08T08:41:23;42.63;;;26.98;;
21761;SDS011;11203;50.870;20.682;2022-12-08T08:43:49;45.28;;;29.30;;
21761;SDS011;11203;50.870;20.682;2022-12-08T08:46:15;38.95;;;25.98;;
21761;SDS011;11203;50.870;20.682;2022-12-08T08:48:41;34.75;;;24.08;;
21761;SDS011;11203;50.870;20.682;2022-12-08T08:51:12;40.15;;;25.45;;
21761;SDS011;11203;50.870;20.682;2022-12-08T08:53:39;35.03;;;24.17;;
21761;SDS011;11203;50.870;20.682;2022-12-08T08:56:09;32.63;;;22.15;;
21761;SDS011;11203;50.870;20.682;2022-12-08T08:58:37;34.60;;;21.90;;
21761;SDS011;11203;50.870;20.682;2022-12-08T09:01:04;32.22;;;21.27;;
21761;SDS011;11203;50.870;20.682;2022-12-08T09:03:30;30.55;;;22.80;;
21761;SDS011;11203;50.870;20.682;2022-12-08T09:05:57;30.67;;;20.38;;
21761;SDS011;11203;50.870;20.682;2022-12-08T09:08:23;27.20;;;18.83;;
21761;SDS011;11203;50.870;20.682;2022-12-08T09:10:49;28.48;;;19.83;;
21761;SDS011;11203;50.870;20.682;2022-12-08T09:13:15;24.05;;;17.38;;
21761;SDS011;11203;50.870;20.682;2022-12-08T09:15:41;30.75;;;20.80;;
21761;SDS011;11203;50.870;20.682;2022-12-08T09:18:08;29.23;;;19.15;;
21761;SDS011;11203;50.870;20.682;2022-12-08T09:20:34;28.45;;;19.15;;
21761;SDS011;11203;50.870;20.682;2022-12-08T09:23:00;28.80;;;20.83;;
21761;SDS011;11203;50.870;20.682;2022-12-08T09:25:26;29.75;;;19.98;;
21761;SDS011;11203;50.870;20.682;2022-12-08T09:27:53;29.05;;;19.98;;
21761;SDS011;11203;50.870;20.682;2022-12-08T09:30:19;25.83;;;18.92;;
21761;SDS011;11203;50.870;20.682;2022-12-08T09:32:45;30.00;;;20.25;;
21761;SDS011;11203;50.870;20.682;2022-12-08T09:35:12;28.60;;;20.38;;
21761;SDS011;11203;50.870;20.682;2022-12-08T09:37:38;28.55;;;19.02;;
21761;SDS011;11203;50.870;20.682;2022-12-08T09:40:05;26.27;;;18.38;;
21761;SDS011;11203;50.870;20.682;2022-12-08T09:45:10;24.15;;;17.20;;
21761;SDS011;11203;50.870;20.682;2022-12-08T09:47:58;24.85;;;18.67;;
21761;SDS011;11203;50.870;20.682;2022-12-08T09:50:44;24.80;;;17.80;;
21761;SDS011;11203;50.870;20.682;2022-12-08T09:56:01;28.00;;;17.88;;
21761;SDS011;11203;50.870;20.682;2022-12-08T09:58:48;26.23;;;18.30;;
21761;SDS011;11203;50.870;20.682;2022-12-08T10:01:18;26.65;;;17.70;;
21761;SDS011;11203;50.870;20.682;2022-12-08T10:03:46;26.33;;;16.80;;
21761;SDS011;11203;50.870;20.682;2022-12-08T10:06:32;22.40;;;16.27;;
21761;SDS011;11203;50.870;20.682;2022-12-08T10:09:55;21.25;;;15.30;;
21761;SDS011;11203;50.870;20.682;2022-12-08T10:12:36;21.63;;;14.93;;
21761;SDS011;11203;50.870;20.682;2022-12-08T10:15:40;20.92;;;14.00;;
21761;SDS011;11203;50.870;20.682;2022-12-08T10:18:11;21.80;;;14.02;;
21761;SDS011;11203;50.870;20.682;2022-12-08T10:20:45;20.83;;;12.82;;
21761;SDS011;11203;50.870;20.682;2022-12-08T10:23:17;21.38;;;15.15;;
21761;SDS011;11203;50.870;20.682;2022-12-08T10:26:01;18.55;;;14.43;;
21761;SDS011;11203;50.870;20.682;2022-12-08T10:28:30;16.10;;;11.35;;
21761;SDS011;11203;50.870;20.682;2022-12-08T10:30:59;18.45;;;12.85;;
21761;SDS011;11203;50.870;20.682;2022-12-08T10:33:25;17.42;;;12.35;;
21761;SDS011;11203;50.870;20.682;2022-12-08T10:35:54;14.55;;;10.25;;
21761;SDS011;11203;50.870;20.682;2022-12-08T10:49:16;16.25;;;12.00;;
21761;SDS011;11203;50.870;20.682;2022-12-08T10:53:57;13.77;;;9.75;;
21761;SDS011;11203;50.870;20.682;2022-12-08T10:56:25;16.08;;;12.38;;
21761;SDS011;11203;50.870;20.682;2022-12-08T10:59:11;16.48;;;11.00;;
21761;SDS011;11203;50.870;20.682;2022-12-08T11:01:44;15.55;;;11.82;;
21761;SDS011;11203;50.870;20.682;2022-12-08T11:04:23;18.05;;;11.27;;
21761;SDS011;11203;50.870;20.682;2022-12-08T11:07:01;19.67;;;12.20;;
21761;SDS011;11203;50.870;20.682;2022-12-08T11:09:35;14.93;;;11.10;;
21761;SDS011;11203;50.870;20.682;2022-12-08T11:12:16;18.15;;;11.27;;
21761;SDS011;11203;50.870;20.682;2022-12-08T11:14:46;15.27;;;10.85;;
21761;SDS011;11203;50.870;20.682;2022-12-08T11:17:25;16.75;;;10.65;;
21761;SDS011;11203;50.870;20.682;2022-12-08T11:22:36;18.30;;;13.77;;
21761;SDS011;11203;50.870;20.682;2022-12-08T11:25:08;20.80;;;14.23;;
21761;SDS011;11203;50.870;20.682;2022-12-08T11:27:42;20.80;;;13.38;;
21761;SDS011;11203;50.870;20.682;2022-12-08T11:30:13;21.13;;;13.73;;
21761;SDS011;11203;50.870;20.682;2022-12-08T11:32:52;21.73;;;14.15;;
21761;SDS011;11203;50.870;20.682;2022-12-08T11:35:28;24.52;;;14.88;;
21761;SDS011;11203;50.870;20.682;2022-12-08T11:38:02;18.75;;;13.30;;
21761;SDS011;11203;50.870;20.682;2022-12-08T11:40:39;22.45;;;15.90;;
21761;SDS011;11203;50.870;20.682;2022-12-08T11:45:41;20.45;;;13.52;;
21761;SDS011;11203;50.870;20.682;2022-12-08T11:48:15;22.55;;;14.27;;
21761;SDS011;11203;50.870;20.682;2022-12-08T11:51:09;20.52;;;14.25;;
21761;SDS011;11203;50.870;20.682;2022-12-08T11:56:23;25.05;;;15.63;;
21761;SDS011;11203;50.870;20.682;2022-12-08T11:58:57;20.55;;;14.80;;
21761;SDS011;11203;50.870;20.682;2022-12-08T12:01:30;28.80;;;16.17;;
21761;SDS011;11203;50.870;20.682;2022-12-08T12:09:50;34.05;;;22.38;;
21761;SDS011;11203;50.870;20.682;2022-12-08T12:15:32;41.85;;;26.08;;
21761;SDS011;11203;50.870;20.682;2022-12-08T12:26:29;65.07;;;27.42;;
21761;SDS011;11203;50.870;20.682;2022-12-08T12:29:02;35.17;;;21.98;;
21761;SDS011;11203;50.870;20.682;2022-12-08T12:31:40;28.83;;;18.02;;
21761;SDS011;11203;50.870;20.682;2022-12-08T12:39:45;34.80;;;22.75;;
21761;SDS011;11203;50.870;20.682;2022-12-08T12:42:34;34.30;;;21.35;;
21761;SDS011;11203;50.870;20.682;2022-12-08T12:45:30;35.58;;;22.95;;
21761;SDS011;11203;50.870;20.682;2022-12-08T12:53:05;47.70;;;27.55;;
21761;SDS011;11203;50.870;20.682;2022-12-08T12:55:53;54.13;;;29.35;;
21761;SDS011;11203;50.870;20.682;2022-12-08T13:03:36;103.32;;;47.03;;
21761;SDS011;11203;50.870;20.682;2022-12-08T13:06:20;108.97;;;48.00;;
21761;SDS011;11203;50.870;20.682;2022-12-08T13:08:57;73.07;;;37.85;;
21761;SDS011;11203;50.870;20.682;2022-12-08T13:11:24;85.47;;;39.55;;
21761;SDS011;11203;50.870;20.682;2022-12-08T13:13:57;44.20;;;24.23;;
21761;SDS011;11203;50.870;20.682;2022-12-08T13:16:31;39.30;;;22.58;;
21761;SDS011;11203;50.870;20.682;2022-12-08T13:19:03;31.65;;;18.48;;
21761;SDS011;11203;50.870;20.682;2022-12-08T13:21:38;33.08;;;20.23;;
21761;SDS011;11203;50.870;20.682;2022-12-08T13:26:50;30.90;;;20.55;;
21761;SDS011;11203;50.870;20.682;2022-12-08T13:29:38;30.73;;;20.92;;
21761;SDS011;11203;50.870;20.682;2022-12-08T13:42:06;26.60;;;15.98;;
21761;SDS011;11203;50.870;20.682;2022-12-08T13:50:28;24.10;;;15.07;;
21761;SDS011;11203;50.870;20.682;2022-12-08T13:53:14;19.92;;;13.07;;
21761;SDS011;11203;50.870;20.682;2022-12-08T13:55:53;19.15;;;12.88;;
21761;SDS011;11203;50.870;20.682;2022-12-08T13:58:26;21.95;;;13.50;;
21761;SDS011;11203;50.870;20.682;2022-12-08T14:01:12;19.15;;;12.98;;
21761;SDS011;11203;50.870;20.682;2022-12-08T14:03:48;19.17;;;12.98;;
21761;SDS011;11203;50.870;20.682;2022-12-08T14:06:18;23.02;;;13.80;;
21761;SDS011;11203;50.870;20.682;2022-12-08T14:08:52;18.88;;;12.63;;
21761;SDS011;11203;50.870;20.682;2022-12-08T14:11:26;19.80;;;13.00;;
21761;SDS011;11203;50.870;20.682;2022-12-08T14:14:06;21.27;;;13.15;;
21761;SDS011;11203;50.870;20.682;2022-12-08T14:16:42;19.38;;;12.40;;
21761;SDS011;11203;50.870;20.682;2022-12-08T14:19:22;19.13;;;12.93;;
21761;SDS011;11203;50.870;20.682;2022-12-08T14:21:56;18.50;;;12.32;;
21761;SDS011;11203;50.870;20.682;2022-12-08T14:24:34;22.27;;;13.75;;
21761;SDS011;11203;50.870;20.682;2022-12-08T14:27:01;20.10;;;13.20;;
21761;SDS011;11203;50.870;20.682;2022-12-08T14:29:40;20.88;;;13.77;;
21761;SDS011;11203;50.870;20.682;2022-12-08T14:34:59;20.08;;;13.73;;
21761;SDS011;11203;50.870;20.682;2022-12-08T14:48:25;21.27;;;12.90;;
21761;SDS011;11203;50.870;20.682;2022-12-08T14:50:56;23.85;;;13.00;;
21761;SDS011;11203;50.870;20.682;2022-12-08T14:53:28;20.88;;;13.25;;
21761;SDS011;11203;50.870;20.682;2022-12-08T14:56:32;20.02;;;12.85;;
21761;SDS011;11203;50.870;20.682;2022-12-08T14:59:34;21.17;;;14.15;;
21761;SDS011;11203;50.870;20.682;2022-12-08T15:07:50;17.10;;;11.10;;
21761;SDS011;11203;50.870;20.682;2022-12-08T15:10:23;15.30;;;10.45;;
21761;SDS011;11203;50.870;20.682;2022-12-08T15:15:22;17.70;;;10.63;;
21761;SDS011;11203;50.870;20.682;2022-12-08T15:17:49;16.50;;;11.38;;
21761;SDS011;11203;50.870;20.682;2022-12-08T15:23:05;13.93;;;10.18;;
21761;SDS011;11203;50.870;20.682;2022-12-08T15:25:43;14.80;;;10.00;;
21761;SDS011;11203;50.870;20.682;2022-12-08T15:28:13;15.95;;;10.02;;
21761;SDS011;11203;50.870;20.682;2022-12-08T15:30:43;16.90;;;9.88;;
21761;SDS011;11203;50.870;20.682;2022-12-08T15:33:10;15.65;;;10.43;;
21761;SDS011;11203;50.870;20.682;2022-12-08T15:35:36;15.98;;;10.65;;
21761;SDS011;11203;50.870;20.682;2022-12-08T15:38:02;17.35;;;11.27;;
21761;SDS011;11203;50.870;20.682;2022-12-08T15:40:31;18.20;;;11.50;;
21761;SDS011;11203;50.870;20.682;2022-12-08T15:42:57;18.80;;;11.68;;
21761;SDS011;11203;50.870;20.682;2022-12-08T15:45:25;20.80;;;12.43;;
21761;SDS011;11203;50.870;20.682;2022-12-08T15:47:55;20.17;;;11.25;;
21761;SDS011;11203;50.870;20.682;2022-12-08T15:50:21;19.13;;;11.73;;
21761;SDS011;11203;50.870;20.682;2022-12-08T15:52:49;18.75;;;11.77;;
21761;SDS011;11203;50.870;20.682;2022-12-08T15:55:16;21.70;;;13.23;;
21761;SDS011;11203;50.870;20.682;2022-12-08T15:57:46;26.70;;;16.02;;
21761;SDS011;11203;50.870;20.682;2022-12-08T16:02:51;31.33;;;18.65;;
21761;SDS011;11203;50.870;20.682;2022-12-08T16:05:21;30.77;;;18.77;;
21761;SDS011;11203;50.870;20.682;2022-12-08T16:07:48;29.80;;;19.70;;
21761;SDS011;11203;50.870;20.682;2022-12-08T16:10:16;33.40;;;21.70;;
21761;SDS011;11203;50.870;20.682;2022-12-08T16:12:49;38.35;;;22.60;;
21761;SDS011;11203;50.870;20.682;2022-12-08T16:15:44;41.70;;;23.00;;
21761;SDS011;11203;50.870;20.682;2022-12-08T16:18:13;36.80;;;22.52;;
21761;SDS011;11203;50.870;20.682;2022-12-08T16:20:48;39.38;;;23.88;;
21761;SDS011;11203;50.870;20.682;2022-12-08T16:23:14;32.78;;;21.27;;
21761;SDS011;11203;50.870;20.682;2022-12-08T16:25:40;36.75;;;22.08;;
21761;SDS011;11203;50.870;20.682;2022-12-08T16:28:07;34.55;;;22.70;;
21761;SDS011;11203;50.870;20.682;2022-12-08T16:30:35;36.42;;;22.30;;
21761;SDS011;11203;50.870;20.682;2022-12-08T16:33:01;40.00;;;23.80;;
21761;SDS011;11203;50.870;20.682;2022-12-08T16:35:28;34.13;;;21.58;;
21761;SDS011;11203;50.870;20.682;2022-12-08T16:37:54;35.35;;;21.77;;
21761;SDS011;11203;50.870;20.682;2022-12-08T16:40:20;37.70;;;23.08;;
21761;SDS011;11203;50.870;20.682;2022-12-08T16:42:47;34.10;;;21.00;;
21761;SDS011;11203;50.870;20.682;2022-12-08T16:45:18;40.53;;;24.30;;